sensor_id;sensor_type;location;lat;lon;timestamp;P1;durP1;ratioP1;P2;durP2;ratioP2
11865;SDS011;5992;52.744;6.898;2023-05-10T00:03:06;6.75;;;3.60;;
11865;SDS011;5992;52.744;6.898;2023-05-10T00:06:12;3.80;;;3.50;;
11865;SDS011;5992;52.744;6.898;2023-05-10T00:09:43;5.77;;;3.47;;
11865;SDS011;5992;52.744;6.898;2023-05-10T00:12:50;5.73;;;3.07;;
11865;SDS011;5992;52.744;6.898;2023-05-10T00:16:06;2.95;;;2.75;;
11865;SDS011;5992;52.744;6.898;2023-05-10T00:19:10;3.03;;;2.83;;
11865;SDS011;5992;52.744;6.898;2023-05-10T00:22:30;3.10;;;2.90;;
11865;SDS011;5992;52.744;6.898;2023-05-10T00:25:49;3.30;;;3.00;;
11865;SDS011;5992;52.744;6.898;2023-05-10T00:29:08;3.47;;;2.67;;
11865;SDS011;5992;52.744;6.898;2023-05-10T00:32:12;3.13;;;2.93;;
11865;SDS011;5992;52.744;6.898;2023-05-10T00:35:31;3.00;;;2.80;;
11865;SDS011;5992;52.744;6.898;2023-05-10T00:38:36;2.80;;;2.60;;
11865;SDS011;5992;52.744;6.898;2023-05-10T00:42:05;3.30;;;3.10;;
11865;SDS011;5992;52.744;6.898;2023-05-10T00:45:21;2.73;;;2.53;;
11865;SDS011;5992;52.744;6.898;2023-05-10T00:48:40;3.00;;;2.70;;
11865;SDS011;5992;52.744;6.898;2023-05-10T00:51:56;2.90;;;2.70;;
11865;SDS011;5992;52.744;6.898;2023-05-10T00:55:28;3.00;;;2.70;;
11865;SDS011;5992;52.744;6.898;2023-05-10T00:58:47;2.80;;;2.60;;
11865;SDS011;5992;52.744;6.898;2023-05-10T01:02:04;3.30;;;3.10;;
11865;SDS011;5992;52.744;6.898;2023-05-10T01:05:20;3.00;;;2.80;;
11865;SDS011;5992;52.744;6.898;2023-05-10T01:08:39;2.93;;;2.73;;
11865;SDS011;5992;52.744;6.898;2023-05-10T01:11:56;2.53;;;2.43;;
11865;SDS011;5992;52.744;6.898;2023-05-10T01:15:33;3.05;;;2.85;;
11865;SDS011;5992;52.744;6.898;2023-05-10T01:19:01;2.80;;;2.65;;
11865;SDS011;5992;52.744;6.898;2023-05-10T01:32:57;3.30;;;3.10;;
11865;SDS011;5992;52.744;6.898;2023-05-10T01:36:31;3.70;;;3.40;;
11865;SDS011;5992;52.744;6.898;2023-05-10T01:39:47;3.30;;;3.10;;
11865;SDS011;5992;52.744;6.898;2023-05-10T01:43:17;3.25;;;3.05;;
11865;SDS011;5992;52.744;6.898;2023-05-10T01:46:33;3.30;;;3.10;;
11865;SDS011;5992;52.744;6.898;2023-05-10T01:50:04;3.70;;;3.40;;
11865;SDS011;5992;52.744;6.898;2023-05-10T01:53:20;2.83;;;2.63;;
11865;SDS011;5992;52.744;6.898;2023-05-10T01:56:49;3.10;;;2.90;;
11865;SDS011;5992;52.744;6.898;2023-05-10T02:00:16;3.45;;;3.15;;
11865;SDS011;5992;52.744;6.898;2023-05-10T02:03:47;3.50;;;3.20;;
11865;SDS011;5992;52.744;6.898;2023-05-10T02:07:04;3.60;;;3.30;;
11865;SDS011;5992;52.744;6.898;2023-05-10T02:10:32;3.90;;;3.60;;
11865;SDS011;5992;52.744;6.898;2023-05-10T02:13:51;3.73;;;3.43;;
11865;SDS011;5992;52.744;6.898;2023-05-10T02:17:22;3.83;;;3.53;;
11865;SDS011;5992;52.744;6.898;2023-05-10T02:20:40;3.10;;;2.90;;
11865;SDS011;5992;52.744;6.898;2023-05-10T02:24:13;3.90;;;3.60;;
11865;SDS011;5992;52.744;6.898;2023-05-10T02:27:40;3.35;;;3.15;;
11865;SDS011;5992;52.744;6.898;2023-05-10T02:31:11;3.30;;;3.00;;
11865;SDS011;5992;52.744;6.898;2023-05-10T02:34:30;3.60;;;3.25;;
11865;SDS011;5992;52.744;6.898;2023-05-10T02:37:58;3.80;;;3.50;;
11865;SDS011;5992;52.744;6.898;2023-05-10T02:41:19;4.05;;;3.50;;
11865;SDS011;5992;52.744;6.898;2023-05-10T02:44:51;3.27;;;3.03;;
11865;SDS011;5992;52.744;6.898;2023-05-10T02:48:06;3.40;;;3.20;;
11865;SDS011;5992;52.744;6.898;2023-05-10T02:51:39;3.60;;;3.37;;
11865;SDS011;5992;52.744;6.898;2023-05-10T02:54:54;3.30;;;3.10;;
11865;SDS011;5992;52.744;6.898;2023-05-10T02:58:24;3.45;;;3.25;;
11865;SDS011;5992;52.744;6.898;2023-05-10T03:01:42;3.30;;;3.10;;
11865;SDS011;5992;52.744;6.898;2023-05-10T03:05:01;3.30;;;3.05;;
11865;SDS011;5992;52.744;6.898;2023-05-10T03:08:17;3.90;;;3.60;;
11865;SDS011;5992;52.744;6.898;2023-05-10T03:11:43;3.35;;;3.15;;
11865;SDS011;5992;52.744;6.898;2023-05-10T03:15:00;3.43;;;3.13;;
11865;SDS011;5992;52.744;6.898;2023-05-10T03:18:29;3.97;;;3.20;;
11865;SDS011;5992;52.744;6.898;2023-05-10T03:21:45;2.80;;;2.60;;
11865;SDS011;5992;52.744;6.898;2023-05-10T03:25:15;3.15;;;2.95;;
11865;SDS011;5992;52.744;6.898;2023-05-10T03:28:43;3.10;;;2.80;;
11865;SDS011;5992;52.744;6.898;2023-05-10T03:32:16;4.10;;;3.40;;
11865;SDS011;5992;52.744;6.898;2023-05-10T03:35:46;3.40;;;3.10;;
11865;SDS011;5992;52.744;6.898;2023-05-10T03:39:05;2.80;;;2.60;;
11865;SDS011;5992;52.744;6.898;2023-05-10T03:42:21;3.30;;;3.10;;
11865;SDS011;5992;52.744;6.898;2023-05-10T03:45:37;3.30;;;3.10;;
11865;SDS011;5992;52.744;6.898;2023-05-10T03:48:55;2.83;;;2.63;;
11865;SDS011;5992;52.744;6.898;2023-05-10T03:52:28;3.20;;;3.00;;
11865;SDS011;5992;52.744;6.898;2023-05-10T03:55:44;2.37;;;2.27;;
11865;SDS011;5992;52.744;6.898;2023-05-10T03:59:03;2.75;;;2.55;;
11865;SDS011;5992;52.744;6.898;2023-05-10T04:02:07;3.20;;;3.00;;
11865;SDS011;5992;52.744;6.898;2023-05-10T04:05:28;3.55;;;3.20;;
11865;SDS011;5992;52.744;6.898;2023-05-10T04:08:43;2.70;;;2.50;;
11865;SDS011;5992;52.744;6.898;2023-05-10T04:12:00;4.60;;;2.80;;
11865;SDS011;5992;52.744;6.898;2023-05-10T04:15:04;2.60;;;2.40;;
11865;SDS011;5992;52.744;6.898;2023-05-10T04:18:35;2.50;;;2.30;;
11865;SDS011;5992;52.744;6.898;2023-05-10T04:21:41;2.90;;;2.70;;
11865;SDS011;5992;52.744;6.898;2023-05-10T04:25:11;2.85;;;2.65;;
11865;SDS011;5992;52.744;6.898;2023-05-10T04:28:15;2.80;;;2.60;;
11865;SDS011;5992;52.744;6.898;2023-05-10T04:31:31;2.80;;;2.50;;
11865;SDS011;5992;52.744;6.898;2023-05-10T04:34:36;3.10;;;2.90;;
11865;SDS011;5992;52.744;6.898;2023-05-10T04:38:08;2.80;;;2.60;;
11865;SDS011;5992;52.744;6.898;2023-05-10T04:41:23;3.10;;;2.90;;
11865;SDS011;5992;52.744;6.898;2023-05-10T04:44:42;2.80;;;2.60;;
11865;SDS011;5992;52.744;6.898;2023-05-10T04:47:46;3.43;;;2.80;;
11865;SDS011;5992;52.744;6.898;2023-05-10T04:51:03;3.30;;;2.90;;
11865;SDS011;5992;52.744;6.898;2023-05-10T04:54:08;3.00;;;2.80;;
11865;SDS011;5992;52.744;6.898;2023-05-10T04:57:39;3.33;;;3.10;;
11865;SDS011;5992;52.744;6.898;2023-05-10T05:00:55;3.10;;;2.90;;
11865;SDS011;5992;52.744;6.898;2023-05-10T05:04:11;2.90;;;2.70;;
11865;SDS011;5992;52.744;6.898;2023-05-10T05:07:15;2.80;;;2.60;;
11865;SDS011;5992;52.744;6.898;2023-05-10T05:10:36;2.90;;;2.70;;
11865;SDS011;5992;52.744;6.898;2023-05-10T05:13:54;3.05;;;2.70;;
11865;SDS011;5992;52.744;6.898;2023-05-10T05:17:13;3.20;;;2.90;;
11865;SDS011;5992;52.744;6.898;2023-05-10T05:20:18;3.40;;;2.95;;
11865;SDS011;5992;52.744;6.898;2023-05-10T05:23:36;2.90;;;2.70;;
11865;SDS011;5992;52.744;6.898;2023-05-10T05:26:42;2.70;;;2.50;;
11865;SDS011;5992;52.744;6.898;2023-05-10T05:30:13;3.15;;;2.90;;
11865;SDS011;5992;52.744;6.898;2023-05-10T05:33:17;2.85;;;2.55;;
11865;SDS011;5992;52.744;6.898;2023-05-10T05:36:36;2.80;;;2.60;;
11865;SDS011;5992;52.744;6.898;2023-05-10T05:39:52;3.10;;;2.70;;
11865;SDS011;5992;52.744;6.898;2023-05-10T05:43:12;2.87;;;2.67;;
11865;SDS011;5992;52.744;6.898;2023-05-10T05:46:31;3.10;;;2.80;;
11865;SDS011;5992;52.744;6.898;2023-05-10T05:49:50;3.65;;;2.85;;
11865;SDS011;5992;52.744;6.898;2023-05-10T05:52:54;3.00;;;2.80;;
11865;SDS011;5992;52.744;6.898;2023-05-10T05:56:13;6.00;;;2.70;;
11865;SDS011;5992;52.744;6.898;2023-05-10T05:59:18;3.03;;;2.77;;
11865;SDS011;5992;52.744;6.898;2023-05-10T06:02:38;3.10;;;2.90;;
11865;SDS011;5992;52.744;6.898;2023-05-10T06:06:09;2.85;;;2.55;;
11865;SDS011;5992;52.744;6.898;2023-05-10T06:09:13;2.60;;;2.40;;
11865;SDS011;5992;52.744;6.898;2023-05-10T06:12:32;2.95;;;2.65;;
11865;SDS011;5992;52.744;6.898;2023-05-10T06:15:37;3.75;;;3.00;;
11865;SDS011;5992;52.744;6.898;2023-05-10T06:19:08;3.10;;;2.80;;
11865;SDS011;5992;52.744;6.898;2023-05-10T06:22:12;2.60;;;2.40;;
11865;SDS011;5992;52.744;6.898;2023-05-10T06:25:36;2.60;;;2.40;;
11865;SDS011;5992;52.744;6.898;2023-05-10T06:28:40;4.50;;;2.85;;
11865;SDS011;5992;52.744;6.898;2023-05-10T06:32:12;2.80;;;2.53;;
11865;SDS011;5992;52.744;6.898;2023-05-10T06:35:31;3.25;;;2.65;;
11865;SDS011;5992;52.744;6.898;2023-05-10T06:38:50;4.13;;;2.97;;
11865;SDS011;5992;52.744;6.898;2023-05-10T06:41:54;2.70;;;2.50;;
11865;SDS011;5992;52.744;6.898;2023-05-10T06:45:13;3.25;;;2.95;;
11865;SDS011;5992;52.744;6.898;2023-05-10T06:48:31;4.15;;;3.30;;
11865;SDS011;5992;52.744;6.898;2023-05-10T06:52:02;3.33;;;3.03;;
11865;SDS011;5992;52.744;6.898;2023-05-10T06:55:06;3.50;;;3.20;;
11865;SDS011;5992;52.744;6.898;2023-05-10T06:58:37;3.20;;;2.70;;
11865;SDS011;5992;52.744;6.898;2023-05-10T07:01:41;2.90;;;2.60;;
11865;SDS011;5992;52.744;6.898;2023-05-10T07:04:59;4.10;;;3.70;;
11865;SDS011;5992;52.744;6.898;2023-05-10T07:08:29;4.43;;;3.20;;
11865;SDS011;5992;52.744;6.898;2023-05-10T07:12:00;3.03;;;2.80;;
11865;SDS011;5992;52.744;6.898;2023-05-10T07:15:04;4.70;;;3.45;;
11865;SDS011;5992;52.744;6.898;2023-05-10T07:18:32;3.00;;;2.60;;
11865;SDS011;5992;52.744;6.898;2023-05-10T07:21:49;3.55;;;3.25;;
11865;SDS011;5992;52.744;6.898;2023-05-10T07:25:23;4.37;;;3.00;;
11865;SDS011;5992;52.744;6.898;2023-05-10T07:28:27;4.00;;;2.90;;
11865;SDS011;5992;52.744;6.898;2023-05-10T07:31:46;3.35;;;3.05;;
11865;SDS011;5992;52.744;6.898;2023-05-10T07:34:52;3.07;;;2.27;;
11865;SDS011;5992;52.744;6.898;2023-05-10T07:38:12;3.17;;;2.83;;
11865;SDS011;5992;52.744;6.898;2023-05-10T07:41:28;2.90;;;2.57;;
11865;SDS011;5992;52.744;6.898;2023-05-10T07:44:44;3.87;;;2.70;;
11865;SDS011;5992;52.744;6.898;2023-05-10T07:47:48;3.50;;;3.00;;
11865;SDS011;5992;52.744;6.898;2023-05-10T07:51:19;4.20;;;2.85;;
11865;SDS011;5992;52.744;6.898;2023-05-10T07:54:25;3.30;;;2.90;;
11865;SDS011;5992;52.744;6.898;2023-05-10T07:57:58;4.15;;;2.40;;
11865;SDS011;5992;52.744;6.898;2023-05-10T08:01:03;3.53;;;3.00;;
11865;SDS011;5992;52.744;6.898;2023-05-10T08:04:19;2.75;;;2.55;;
11865;SDS011;5992;52.744;6.898;2023-05-10T08:07:26;2.90;;;2.60;;
11865;SDS011;5992;52.744;6.898;2023-05-10T08:10:47;3.25;;;2.50;;
11865;SDS011;5992;52.744;6.898;2023-05-10T08:14:02;2.93;;;2.73;;
11865;SDS011;5992;52.744;6.898;2023-05-10T08:17:21;2.77;;;2.57;;
11865;SDS011;5992;52.744;6.898;2023-05-10T08:20:28;4.70;;;3.00;;
11865;SDS011;5992;52.744;6.898;2023-05-10T08:23:44;2.90;;;2.60;;
11865;SDS011;5992;52.744;6.898;2023-05-10T08:26:50;2.60;;;2.40;;
11865;SDS011;5992;52.744;6.898;2023-05-10T08:30:23;4.90;;;2.35;;
11865;SDS011;5992;52.744;6.898;2023-05-10T08:33:27;2.73;;;2.47;;
11865;SDS011;5992;52.744;6.898;2023-05-10T08:36:43;2.90;;;2.70;;
11865;SDS011;5992;52.744;6.898;2023-05-10T08:39:47;3.55;;;2.40;;
11865;SDS011;5992;52.744;6.898;2023-05-10T08:43:08;2.60;;;2.40;;
11865;SDS011;5992;52.744;6.898;2023-05-10T08:46:26;2.40;;;2.20;;
11865;SDS011;5992;52.744;6.898;2023-05-10T08:49:54;2.40;;;2.20;;
11865;SDS011;5992;52.744;6.898;2023-05-10T08:53:11;2.65;;;2.45;;
11865;SDS011;5992;52.744;6.898;2023-05-10T08:56:41;2.70;;;2.20;;
11865;SDS011;5992;52.744;6.898;2023-05-10T08:59:59;3.23;;;2.83;;
11865;SDS011;5992;52.744;6.898;2023-05-10T09:03:30;2.40;;;2.20;;
11865;SDS011;5992;52.744;6.898;2023-05-10T09:06:46;2.03;;;1.93;;
11865;SDS011;5992;52.744;6.898;2023-05-10T09:10:03;2.10;;;2.00;;
11865;SDS011;5992;52.744;6.898;2023-05-10T09:13:18;4.50;;;2.30;;
11865;SDS011;5992;52.744;6.898;2023-05-10T09:16:51;2.03;;;1.83;;
11865;SDS011;5992;52.744;6.898;2023-05-10T09:20:06;2.40;;;2.20;;
11865;SDS011;5992;52.744;6.898;2023-05-10T09:23:34;2.10;;;1.90;;
11865;SDS011;5992;52.744;6.898;2023-05-10T09:26:45;2.30;;;2.15;;
11865;SDS011;5992;52.744;6.898;2023-05-10T09:30:23;2.40;;;2.20;;
11865;SDS011;5992;52.744;6.898;2023-05-10T09:33:45;2.00;;;1.80;;
11865;SDS011;5992;52.744;6.898;2023-05-10T09:37:18;2.20;;;2.10;;
11865;SDS011;5992;52.744;6.898;2023-05-10T09:40:34;2.25;;;2.05;;
11865;SDS011;5992;52.744;6.898;2023-05-10T09:43:55;1.73;;;1.63;;
11865;SDS011;5992;52.744;6.898;2023-05-10T09:47:11;2.10;;;2.00;;
11865;SDS011;5992;52.744;6.898;2023-05-10T09:50:44;2.63;;;2.00;;
11865;SDS011;5992;52.744;6.898;2023-05-10T09:54:09;1.70;;;1.60;;
11865;SDS011;5992;52.744;6.898;2023-05-10T09:57:39;2.60;;;1.93;;
11865;SDS011;5992;52.744;6.898;2023-05-10T10:00:58;2.30;;;2.10;;
11865;SDS011;5992;52.744;6.898;2023-05-10T10:04:30;2.10;;;2.00;;
11865;SDS011;5992;52.744;6.898;2023-05-10T10:07:35;2.10;;;2.00;;
11865;SDS011;5992;52.744;6.898;2023-05-10T10:11:09;2.60;;;2.10;;
11865;SDS011;5992;52.744;6.898;2023-05-10T10:14:25;3.20;;;1.93;;
11865;SDS011;5992;52.744;6.898;2023-05-10T10:17:54;1.87;;;1.77;;
11865;SDS011;5992;52.744;6.898;2023-05-10T10:20:58;2.30;;;2.00;;
11865;SDS011;5992;52.744;6.898;2023-05-10T10:24:32;2.60;;;2.40;;
11865;SDS011;5992;52.744;6.898;2023-05-10T10:27:49;2.23;;;2.03;;
11865;SDS011;5992;52.744;6.898;2023-05-10T10:31:23;2.23;;;2.03;;
11865;SDS011;5992;52.744;6.898;2023-05-10T10:34:38;2.43;;;2.23;;
11865;SDS011;5992;52.744;6.898;2023-05-10T10:38:08;2.23;;;2.03;;
11865;SDS011;5992;52.744;6.898;2023-05-10T10:41:29;2.60;;;2.40;;
11865;SDS011;5992;52.744;6.898;2023-05-10T10:45:11;2.33;;;2.13;;
11865;SDS011;5992;52.744;6.898;2023-05-10T10:48:27;2.80;;;2.45;;
11865;SDS011;5992;52.744;6.898;2023-05-10T10:55:19;2.80;;;2.60;;
11865;SDS011;5992;52.744;6.898;2023-05-10T10:58:51;3.80;;;2.50;;
11865;SDS011;5992;52.744;6.898;2023-05-10T11:02:10;2.80;;;2.40;;
11865;SDS011;5992;52.744;6.898;2023-05-10T11:05:33;2.73;;;1.90;;
11865;SDS011;5992;52.744;6.898;2023-05-10T11:08:49;2.40;;;2.20;;
11865;SDS011;5992;52.744;6.898;2023-05-10T11:12:20;2.63;;;2.43;;
11865;SDS011;5992;52.744;6.898;2023-05-10T11:15:30;3.00;;;2.70;;
11865;SDS011;5992;52.744;6.898;2023-05-10T11:18:59;4.20;;;2.40;;
11865;SDS011;5992;52.744;6.898;2023-05-10T11:22:17;2.60;;;2.40;;
11865;SDS011;5992;52.744;6.898;2023-05-10T11:25:33;2.67;;;2.47;;
11865;SDS011;5992;52.744;6.898;2023-05-10T11:28:40;2.90;;;2.60;;
11865;SDS011;5992;52.744;6.898;2023-05-10T11:32:13;2.30;;;2.10;;
11865;SDS011;5992;52.744;6.898;2023-05-10T11:35:29;2.77;;;2.57;;
11865;SDS011;5992;52.744;6.898;2023-05-10T11:38:48;2.90;;;2.70;;
11865;SDS011;5992;52.744;6.898;2023-05-10T11:42:07;3.70;;;3.00;;
11865;SDS011;5992;52.744;6.898;2023-05-10T11:45:41;3.47;;;2.60;;
11865;SDS011;5992;52.744;6.898;2023-05-10T11:48:59;3.55;;;3.10;;
11865;SDS011;5992;52.744;6.898;2023-05-10T11:52:35;4.07;;;2.93;;
11865;SDS011;5992;52.744;6.898;2023-05-10T11:55:51;2.97;;;2.67;;
11865;SDS011;5992;52.744;6.898;2023-05-10T11:59:10;3.30;;;3.00;;
11865;SDS011;5992;52.744;6.898;2023-05-10T12:02:14;3.35;;;3.05;;
11865;SDS011;5992;52.744;6.898;2023-05-10T12:05:49;3.43;;;2.93;;
11865;SDS011;5992;52.744;6.898;2023-05-10T12:09:05;4.00;;;3.55;;
11865;SDS011;5992;52.744;6.898;2023-05-10T12:12:39;3.40;;;3.10;;
11865;SDS011;5992;52.744;6.898;2023-05-10T12:15:59;3.43;;;3.03;;
11865;SDS011;5992;52.744;6.898;2023-05-10T12:19:36;4.77;;;3.20;;
11865;SDS011;5992;52.744;6.898;2023-05-10T12:22:54;5.43;;;3.63;;
11865;SDS011;5992;52.744;6.898;2023-05-10T12:26:24;2.35;;;2.25;;
11865;SDS011;5992;52.744;6.898;2023-05-10T12:29:41;3.27;;;2.97;;
11865;SDS011;5992;52.744;6.898;2023-05-10T12:33:23;3.40;;;3.10;;
11865;SDS011;5992;52.744;6.898;2023-05-10T12:36:27;3.47;;;3.17;;
11865;SDS011;5992;52.744;6.898;2023-05-10T12:39:45;3.10;;;2.90;;
11865;SDS011;5992;52.744;6.898;2023-05-10T12:43:03;3.10;;;2.77;;
11865;SDS011;5992;52.744;6.898;2023-05-10T12:46:20;3.20;;;2.90;;
11865;SDS011;5992;52.744;6.898;2023-05-10T12:49:24;3.73;;;3.30;;
11865;SDS011;5992;52.744;6.898;2023-05-10T12:52:43;3.17;;;2.87;;
11865;SDS011;5992;52.744;6.898;2023-05-10T12:55:49;4.10;;;3.23;;
11865;SDS011;5992;52.744;6.898;2023-05-10T12:59:17;4.33;;;3.30;;
11865;SDS011;5992;52.744;6.898;2023-05-10T13:02:24;4.20;;;3.70;;
11865;SDS011;5992;52.744;6.898;2023-05-10T13:05:45;3.85;;;3.45;;
11865;SDS011;5992;52.744;6.898;2023-05-10T13:08:49;5.10;;;3.60;;
11865;SDS011;5992;52.744;6.898;2023-05-10T13:12:07;3.60;;;3.30;;
11865;SDS011;5992;52.744;6.898;2023-05-10T13:15:25;3.30;;;3.10;;
11865;SDS011;5992;52.744;6.898;2023-05-10T13:18:53;3.20;;;2.90;;
11865;SDS011;5992;52.744;6.898;2023-05-10T13:21:57;3.53;;;2.50;;
11865;SDS011;5992;52.744;6.898;2023-05-10T13:25:16;3.10;;;2.80;;
11865;SDS011;5992;52.744;6.898;2023-05-10T13:28:34;3.67;;;2.67;;
11865;SDS011;5992;52.744;6.898;2023-05-10T13:32:03;4.07;;;2.77;;
11865;SDS011;5992;52.744;6.898;2023-05-10T13:35:19;2.87;;;2.67;;
11865;SDS011;5992;52.744;6.898;2023-05-10T13:38:38;3.47;;;3.17;;
11865;SDS011;5992;52.744;6.898;2023-05-10T13:41:42;3.73;;;3.00;;
11865;SDS011;5992;52.744;6.898;2023-05-10T13:45:03;4.15;;;3.55;;
11865;SDS011;5992;52.744;6.898;2023-05-10T13:48:19;2.93;;;2.73;;
11865;SDS011;5992;52.744;6.898;2023-05-10T13:51:36;3.23;;;2.93;;
11865;SDS011;5992;52.744;6.898;2023-05-10T13:54:40;3.37;;;3.07;;
11865;SDS011;5992;52.744;6.898;2023-05-10T13:58:09;3.03;;;2.63;;
11865;SDS011;5992;52.744;6.898;2023-05-10T14:01:27;3.17;;;2.87;;
11865;SDS011;5992;52.744;6.898;2023-05-10T14:04:56;2.43;;;2.23;;
11865;SDS011;5992;52.744;6.898;2023-05-10T14:08:00;2.60;;;2.40;;
11865;SDS011;5992;52.744;6.898;2023-05-10T14:11:31;5.03;;;2.47;;
11865;SDS011;5992;52.744;6.898;2023-05-10T14:14:35;2.77;;;2.57;;
11865;SDS011;5992;52.744;6.898;2023-05-10T14:17:59;2.50;;;2.30;;
11865;SDS011;5992;52.744;6.898;2023-05-10T14:21:17;3.75;;;3.40;;
11865;SDS011;5992;52.744;6.898;2023-05-10T14:24:37;3.60;;;3.23;;
11865;SDS011;5992;52.744;6.898;2023-05-10T14:27:52;3.25;;;2.85;;
11865;SDS011;5992;52.744;6.898;2023-05-10T14:31:08;4.13;;;3.20;;
11865;SDS011;5992;52.744;6.898;2023-05-10T14:34:14;2.90;;;2.70;;
11865;SDS011;5992;52.744;6.898;2023-05-10T14:37:44;3.47;;;2.97;;
11865;SDS011;5992;52.744;6.898;2023-05-10T14:41:00;3.85;;;3.55;;
11865;SDS011;5992;52.744;6.898;2023-05-10T14:44:19;4.85;;;3.35;;
11865;SDS011;5992;52.744;6.898;2023-05-10T14:47:23;3.60;;;2.93;;
11865;SDS011;5992;52.744;6.898;2023-05-10T14:50:45;3.73;;;2.90;;
11865;SDS011;5992;52.744;6.898;2023-05-10T14:53:59;2.80;;;2.60;;
11865;SDS011;5992;52.744;6.898;2023-05-10T14:57:15;3.30;;;3.00;;
11865;SDS011;5992;52.744;6.898;2023-05-10T15:00:19;3.10;;;2.90;;
11865;SDS011;5992;52.744;6.898;2023-05-10T15:03:24;4.27;;;3.20;;
11865;SDS011;5992;52.744;6.898;2023-05-10T15:06:32;3.05;;;2.85;;
11865;SDS011;5992;52.744;6.898;2023-05-10T15:09:59;3.25;;;2.95;;
11865;SDS011;5992;52.744;6.898;2023-05-10T15:13:15;3.53;;;2.80;;
11865;SDS011;5992;52.744;6.898;2023-05-10T15:16:34;3.13;;;2.87;;
11865;SDS011;5992;52.744;6.898;2023-05-10T15:19:41;3.63;;;2.67;;
11865;SDS011;5992;52.744;6.898;2023-05-10T15:23:14;3.87;;;2.87;;
11865;SDS011;5992;52.744;6.898;2023-05-10T15:26:32;2.90;;;2.70;;
11865;SDS011;5992;52.744;6.898;2023-05-10T15:29:51;3.15;;;2.85;;
11865;SDS011;5992;52.744;6.898;2023-05-10T15:32:55;3.47;;;2.80;;
11865;SDS011;5992;52.744;6.898;2023-05-10T15:36:27;4.67;;;3.20;;
11865;SDS011;5992;52.744;6.898;2023-05-10T15:39:32;2.73;;;2.53;;
11865;SDS011;5992;52.744;6.898;2023-05-10T15:43:06;4.27;;;2.90;;
11865;SDS011;5992;52.744;6.898;2023-05-10T15:46:09;3.40;;;3.10;;
11865;SDS011;5992;52.744;6.898;2023-05-10T15:49:28;3.50;;;2.90;;
11865;SDS011;5992;52.744;6.898;2023-05-10T15:52:32;4.47;;;3.20;;
11865;SDS011;5992;52.744;6.898;2023-05-10T15:55:50;3.13;;;2.93;;
11865;SDS011;5992;52.744;6.898;2023-05-10T15:59:09;3.20;;;2.90;;
11865;SDS011;5992;52.744;6.898;2023-05-10T16:02:25;3.85;;;3.10;;
11865;SDS011;5992;52.744;6.898;2023-05-10T16:05:41;3.40;;;3.10;;
11865;SDS011;5992;52.744;6.898;2023-05-10T16:08:45;3.50;;;3.05;;
11865;SDS011;5992;52.744;6.898;2023-05-10T16:12:05;3.53;;;3.23;;
11865;SDS011;5992;52.744;6.898;2023-05-10T16:15:24;3.57;;;3.27;;
11865;SDS011;5992;52.744;6.898;2023-05-10T16:18:40;4.23;;;3.73;;
11865;SDS011;5992;52.744;6.898;2023-05-10T16:21:47;3.60;;;3.20;;
11865;SDS011;5992;52.744;6.898;2023-05-10T16:25:19;3.75;;;3.45;;
11865;SDS011;5992;52.744;6.898;2023-05-10T16:28:24;4.57;;;3.50;;
11865;SDS011;5992;52.744;6.898;2023-05-10T16:31:52;3.60;;;3.30;;
11865;SDS011;5992;52.744;6.898;2023-05-10T16:34:56;4.63;;;3.30;;
11865;SDS011;5992;52.744;6.898;2023-05-10T16:38:12;4.37;;;3.77;;
11865;SDS011;5992;52.744;6.898;2023-05-10T16:41:16;3.43;;;3.07;;
11865;SDS011;5992;52.744;6.898;2023-05-10T16:44:33;3.25;;;3.05;;
11865;SDS011;5992;52.744;6.898;2023-05-10T16:47:49;3.70;;;3.40;;
11865;SDS011;5992;52.744;6.898;2023-05-10T16:51:08;5.00;;;3.43;;
11865;SDS011;5992;52.744;6.898;2023-05-10T16:54:23;3.97;;;3.30;;
11865;SDS011;5992;52.744;6.898;2023-05-10T16:57:42;3.13;;;2.83;;
11865;SDS011;5992;52.744;6.898;2023-05-10T17:00:52;3.97;;;3.03;;
11865;SDS011;5992;52.744;6.898;2023-05-10T17:04:24;3.85;;;3.50;;
11865;SDS011;5992;52.744;6.898;2023-05-10T17:07:28;4.60;;;3.10;;
11865;SDS011;5992;52.744;6.898;2023-05-10T17:10:44;3.70;;;3.40;;
11865;SDS011;5992;52.744;6.898;2023-05-10T17:13:48;3.87;;;3.57;;
11865;SDS011;5992;52.744;6.898;2023-05-10T17:17:08;4.07;;;3.60;;
11865;SDS011;5992;52.744;6.898;2023-05-10T17:20:27;3.43;;;3.20;;
11865;SDS011;5992;52.744;6.898;2023-05-10T17:23:43;4.55;;;3.60;;
11865;SDS011;5992;52.744;6.898;2023-05-10T17:26:47;4.67;;;3.50;;
11865;SDS011;5992;52.744;6.898;2023-05-10T17:30:06;4.27;;;3.50;;
11865;SDS011;5992;52.744;6.898;2023-05-10T17:33:24;4.00;;;3.70;;
11865;SDS011;5992;52.744;6.898;2023-05-10T17:36:58;3.53;;;3.23;;
11865;SDS011;5992;52.744;6.898;2023-05-10T17:40:02;3.97;;;3.57;;
11865;SDS011;5992;52.744;6.898;2023-05-10T17:43:19;4.50;;;3.55;;
11865;SDS011;5992;52.744;6.898;2023-05-10T17:46:23;4.00;;;3.60;;
11865;SDS011;5992;52.744;6.898;2023-05-10T17:49:43;3.20;;;3.00;;
11865;SDS011;5992;52.744;6.898;2023-05-10T17:53:02;3.83;;;3.43;;
11865;SDS011;5992;52.744;6.898;2023-05-10T17:56:18;4.27;;;3.87;;
11865;SDS011;5992;52.744;6.898;2023-05-10T17:59:34;3.53;;;3.23;;
11865;SDS011;5992;52.744;6.898;2023-05-10T18:02:41;3.93;;;3.40;;
11865;SDS011;5992;52.744;6.898;2023-05-10T18:06:02;4.00;;;3.60;;
11865;SDS011;5992;52.744;6.898;2023-05-10T18:09:17;4.50;;;3.63;;
11865;SDS011;5992;52.744;6.898;2023-05-10T18:12:33;4.17;;;3.40;;
11865;SDS011;5992;52.744;6.898;2023-05-10T18:15:37;4.37;;;3.97;;
11865;SDS011;5992;52.744;6.898;2023-05-10T18:18:56;4.20;;;3.07;;
11865;SDS011;5992;52.744;6.898;2023-05-10T18:22:14;3.60;;;3.30;;
11865;SDS011;5992;52.744;6.898;2023-05-10T18:25:41;4.03;;;3.63;;
11865;SDS011;5992;52.744;6.898;2023-05-10T18:28:45;5.27;;;3.63;;
11865;SDS011;5992;52.744;6.898;2023-05-10T18:32:01;7.90;;;4.00;;
11865;SDS011;5992;52.744;6.898;2023-05-10T18:35:05;3.80;;;3.50;;
11865;SDS011;5992;52.744;6.898;2023-05-10T18:38:35;4.10;;;3.60;;
11865;SDS011;5992;52.744;6.898;2023-05-10T18:41:53;3.30;;;2.97;;
11865;SDS011;5992;52.744;6.898;2023-05-10T18:45:09;4.93;;;3.90;;
11865;SDS011;5992;52.744;6.898;2023-05-10T18:48:13;3.40;;;3.10;;
11865;SDS011;5992;52.744;6.898;2023-05-10T18:51:32;3.50;;;3.20;;
11865;SDS011;5992;52.744;6.898;2023-05-10T18:54:38;4.33;;;3.93;;
11865;SDS011;5992;52.744;6.898;2023-05-10T18:58:08;3.30;;;3.10;;
11865;SDS011;5992;52.744;6.898;2023-05-10T19:01:12;4.00;;;3.60;;
11865;SDS011;5992;52.744;6.898;2023-05-10T19:04:28;4.27;;;3.90;;
11865;SDS011;5992;52.744;6.898;2023-05-10T19:07:32;4.00;;;3.70;;
11865;SDS011;5992;52.744;6.898;2023-05-10T19:11:02;4.75;;;3.80;;
11865;SDS011;5992;52.744;6.898;2023-05-10T19:14:21;4.07;;;3.47;;
11865;SDS011;5992;52.744;6.898;2023-05-10T19:17:38;3.90;;;3.50;;
11865;SDS011;5992;52.744;6.898;2023-05-10T19:20:56;3.53;;;3.23;;
11865;SDS011;5992;52.744;6.898;2023-05-10T19:24:15;3.80;;;3.20;;
11865;SDS011;5992;52.744;6.898;2023-05-10T19:27:21;4.15;;;3.35;;
11865;SDS011;5992;52.744;6.898;2023-05-10T19:30:53;3.43;;;3.13;;
11865;SDS011;5992;52.744;6.898;2023-05-10T19:33:57;3.87;;;3.50;;
11865;SDS011;5992;52.744;6.898;2023-05-10T19:37:13;3.33;;;3.03;;
11865;SDS011;5992;52.744;6.898;2023-05-10T19:40:32;3.13;;;2.93;;
11865;SDS011;5992;52.744;6.898;2023-05-10T19:44:05;4.07;;;3.67;;
11865;SDS011;5992;52.744;6.898;2023-05-10T19:47:23;4.20;;;3.80;;
11865;SDS011;5992;52.744;6.898;2023-05-10T19:50:42;3.43;;;3.13;;
11865;SDS011;5992;52.744;6.898;2023-05-10T19:53:46;4.05;;;3.60;;
11865;SDS011;5992;52.744;6.898;2023-05-10T19:57:05;4.37;;;3.53;;
11865;SDS011;5992;52.744;6.898;2023-05-10T20:00:14;4.17;;;3.77;;
11865;SDS011;5992;52.744;6.898;2023-05-10T20:03:45;4.10;;;3.20;;
11865;SDS011;5992;52.744;6.898;2023-05-10T20:06:49;9.23;;;5.33;;
11865;SDS011;5992;52.744;6.898;2023-05-10T20:10:08;4.10;;;3.70;;
11865;SDS011;5992;52.744;6.898;2023-05-10T20:13:24;5.60;;;4.60;;
11865;SDS011;5992;52.744;6.898;2023-05-10T20:16:43;4.03;;;3.67;;
11865;SDS011;5992;52.744;6.898;2023-05-10T20:20:01;7.00;;;5.70;;
11865;SDS011;5992;52.744;6.898;2023-05-10T20:23:20;5.37;;;4.03;;
11865;SDS011;5992;52.744;6.898;2023-05-10T20:26:24;4.77;;;4.30;;